sensor_id;sensor_type;location;lat;lon;timestamp;temperature;humidity
1992;DHT22;997;48.448;8.924;2024-03-25T00:01:26;3.60;99.90
1992;DHT22;997;48.448;8.924;2024-03-25T00:03:52;3.60;99.90
1992;DHT22;997;48.448;8.924;2024-03-25T00:06:17;3.60;99.90
1992;DHT22;997;48.448;8.924;2024-03-25T00:08:43;3.60;99.90
1992;DHT22;997;48.448;8.924;2024-03-25T00:11:08;3.60;99.90
1992;DHT22;997;48.448;8.924;2024-03-25T00:13:34;3.60;99.90
1992;DHT22;997;48.448;8.924;2024-03-25T00:15:59;3.50;99.90
1992;DHT22;997;48.448;8.924;2024-03-25T00:18:25;3.50;99.90
1992;DHT22;997;48.448;8.924;2024-03-25T00:20:51;3.60;99.90
1992;DHT22;997;48.448;8.924;2024-03-25T00:23:17;3.70;99.90
1992;DHT22;997;48.448;8.924;2024-03-25T00:25:42;3.70;99.90
1992;DHT22;997;48.448;8.924;2024-03-25T00:28:08;3.80;99.90
1992;DHT22;997;48.448;8.924;2024-03-25T00:30:34;3.80;99.90
1992;DHT22;997;48.448;8.924;2024-03-25T00:32:59;3.80;99.90
1992;DHT22;997;48.448;8.924;2024-03-25T00:35:25;3.90;99.90
1992;DHT22;997;48.448;8.924;2024-03-25T00:37:50;3.90;99.90
1992;DHT22;997;48.448;8.924;2024-03-25T00:40:16;4.00;99.90
1992;DHT22;997;48.448;8.924;2024-03-25T00:42:42;4.10;99.90
1992;DHT22;997;48.448;8.924;2024-03-25T00:45:08;4.10;99.90
1992;DHT22;997;48.448;8.924;2024-03-25T00:47:33;4.10;99.90
1992;DHT22;997;48.448;8.924;2024-03-25T00:49:59;4.10;99.90
1992;DHT22;997;48.448;8.924;2024-03-25T00:52:25;4.10;99.90
1992;DHT22;997;48.448;8.924;2024-03-25T00:54:50;4.10;99.90
1992;DHT22;997;48.448;8.924;2024-03-25T00:57:16;4.00;99.90
1992;DHT22;997;48.448;8.924;2024-03-25T00:59:41;4.10;99.90
1992;DHT22;997;48.448;8.924;2024-03-25T01:02:07;3.90;99.90
1992;DHT22;997;48.448;8.924;2024-03-25T01:04:33;3.80;99.90
1992;DHT22;997;48.448;8.924;2024-03-25T01:06:59;3.80;99.90
1992;DHT22;997;48.448;8.924;2024-03-25T01:09:24;3.80;99.90
1992;DHT22;997;48.448;8.924;2024-03-25T01:11:51;3.80;99.90
1992;DHT22;997;48.448;8.924;2024-03-25T01:14:16;3.80;99.90
1992;DHT22;997;48.448;8.924;2024-03-25T01:16:42;3.80;99.90
1992;DHT22;997;48.448;8.924;2024-03-25T01:19:08;3.80;99.90
1992;DHT22;997;48.448;8.924;2024-03-25T01:21:34;3.80;99.90
1992;DHT22;997;48.448;8.924;2024-03-25T01:24:00;3.90;99.90
1992;DHT22;997;48.448;8.924;2024-03-25T01:26:25;3.80;99.90
1992;DHT22;997;48.448;8.924;2024-03-25T01:28:51;3.80;99.90
1992;DHT22;997;48.448;8.924;2024-03-25T01:31:17;3.80;99.90
1992;DHT22;997;48.448;8.924;2024-03-25T01:33:43;3.80;99.90
1992;DHT22;997;48.448;8.924;2024-03-25T01:36:08;3.80;99.90
1992;DHT22;997;48.448;8.924;2024-03-25T01:38:36;3.80;99.90
1992;DHT22;997;48.448;8.924;2024-03-25T01:41:12;3.80;99.90
1992;DHT22;997;48.448;8.924;2024-03-25T01:43:38;3.90;99.90
1992;DHT22;997;48.448;8.924;2024-03-25T01:46:04;3.90;99.90
1992;DHT22;997;48.448;8.924;2024-03-25T01:48:31;4.00;99.90
1992;DHT22;997;48.448;8.924;2024-03-25T01:50:57;3.90;99.90
1992;DHT22;997;48.448;8.924;2024-03-25T01:53:24;3.90;99.90
1992;DHT22;997;48.448;8.924;2024-03-25T01:55:52;3.90;99.90
1992;DHT22;997;48.448;8.924;2024-03-25T01:58:20;3.80;99.90
1992;DHT22;997;48.448;8.924;2024-03-25T02:00:46;3.80;99.90
1992;DHT22;997;48.448;8.924;2024-03-25T02:03:12;3.80;99.90
1992;DHT22;997;48.448;8.924;2024-03-25T02:05:38;3.80;99.90
1992;DHT22;997;48.448;8.924;2024-03-25T02:08:04;3.80;99.90
1992;DHT22;997;48.448;8.924;2024-03-25T02:10:32;3.70;99.90
1992;DHT22;997;48.448;8.924;2024-03-25T02:12:58;3.80;99.90
1992;DHT22;997;48.448;8.924;2024-03-25T02:15:24;3.70;99.90
1992;DHT22;997;48.448;8.924;2024-03-25T02:17:51;3.70;99.90
1992;DHT22;997;48.448;8.924;2024-03-25T02:20:17;3.70;99.90
1992;DHT22;997;48.448;8.924;2024-03-25T02:22:43;3.60;99.90
1992;DHT22;997;48.448;8.924;2024-03-25T02:25:09;3.60;99.90
1992;DHT22;997;48.448;8.924;2024-03-25T02:27:36;3.60;99.90
1992;DHT22;997;48.448;8.924;2024-03-25T02:30:09;3.60;99.90
1992;DHT22;997;48.448;8.924;2024-03-25T02:32:38;3.60;99.90
1992;DHT22;997;48.448;8.924;2024-03-25T02:35:06;3.60;99.90
1992;DHT22;997;48.448;8.924;2024-03-25T02:37:33;3.70;99.90
1992;DHT22;997;48.448;8.924;2024-03-25T02:40:00;3.70;99.90
1992;DHT22;997;48.448;8.924;2024-03-25T02:42:26;3.80;99.90
1992;DHT22;997;48.448;8.924;2024-03-25T02:44:53;4.00;99.90
1992;DHT22;997;48.448;8.924;2024-03-25T02:47:19;4.10;99.90
1992;DHT22;997;48.448;8.924;2024-03-25T02:49:45;4.10;99.90
1992;DHT22;997;48.448;8.924;2024-03-25T02:52:11;4.10;99.90
1992;DHT22;997;48.448;8.924;2024-03-25T02:54:36;4.00;99.90
1992;DHT22;997;48.448;8.924;2024-03-25T02:57:02;4.00;99.90
1992;DHT22;997;48.448;8.924;2024-03-25T02:59:27;4.00;99.90
1992;DHT22;997;48.448;8.924;2024-03-25T03:01:53;3.90;99.90
1992;DHT22;997;48.448;8.924;2024-03-25T03:04:18;3.80;99.90
1992;DHT22;997;48.448;8.924;2024-03-25T03:06:44;3.70;99.90
1992;DHT22;997;48.448;8.924;2024-03-25T03:09:09;3.70;99.90
1992;DHT22;997;48.448;8.924;2024-03-25T03:11:35;3.70;99.90
1992;DHT22;997;48.448;8.924;2024-03-25T03:14:01;3.70;99.90
1992;DHT22;997;48.448;8.924;2024-03-25T03:16:26;3.60;99.90
1992;DHT22;997;48.448;8.924;2024-03-25T03:18:53;3.60;99.90
1992;DHT22;997;48.448;8.924;2024-03-25T03:21:19;3.60;99.90
1992;DHT22;997;48.448;8.924;2024-03-25T03:23:44;3.50;99.90
1992;DHT22;997;48.448;8.924;2024-03-25T03:26:10;3.50;99.90
1992;DHT22;997;48.448;8.924;2024-03-25T03:28:35;3.40;99.90
1992;DHT22;997;48.448;8.924;2024-03-25T03:31:01;3.40;99.90
1992;DHT22;997;48.448;8.924;2024-03-25T03:33:26;3.30;99.90
1992;DHT22;997;48.448;8.924;2024-03-25T03:35:52;3.30;99.90
1992;DHT22;997;48.448;8.924;2024-03-25T03:38:17;3.30;99.90
1992;DHT22;997;48.448;8.924;2024-03-25T03:40:55;3.20;99.90
1992;DHT22;997;48.448;8.924;2024-03-25T03:43:21;3.20;99.90
1992;DHT22;997;48.448;8.924;2024-03-25T03:45:46;3.20;99.90
1992;DHT22;997;48.448;8.924;2024-03-25T03:48:12;3.20;99.90
1992;DHT22;997;48.448;8.924;2024-03-25T03:50:37;3.20;99.90
1992;DHT22;997;48.448;8.924;2024-03-25T03:53:03;3.20;99.90
1992;DHT22;997;48.448;8.924;2024-03-25T03:55:29;3.20;99.90
1992;DHT22;997;48.448;8.924;2024-03-25T03:57:55;3.20;99.90
1992;DHT22;997;48.448;8.924;2024-03-25T04:00:20;3.30;99.90
1992;DHT22;997;48.448;8.924;2024-03-25T04:02:46;3.20;99.90
1992;DHT22;997;48.448;8.924;2024-03-25T04:05:11;3.20;99.90
1992;DHT22;997;48.448;8.924;2024-03-25T04:07:37;3.20;99.90
1992;DHT22;997;48.448;8.924;2024-03-25T04:10:04;3.10;99.90
1992;DHT22;997;48.448;8.924;2024-03-25T04:12:30;3.00;99.90
1992;DHT22;997;48.448;8.924;2024-03-25T04:14:55;3.10;99.90
1992;DHT22;997;48.448;8.924;2024-03-25T04:17:21;3.10;99.90
1992;DHT22;997;48.448;8.924;2024-03-25T04:19:48;3.20;99.90
1992;DHT22;997;48.448;8.924;2024-03-25T04:22:14;3.10;99.90
1992;DHT22;997;48.448;8.924;2024-03-25T04:24:39;3.10;99.90
1992;DHT22;997;48.448;8.924;2024-03-25T04:27:08;3.00;99.90
1992;DHT22;997;48.448;8.924;2024-03-25T04:29:33;2.80;99.90
1992;DHT22;997;48.448;8.924;2024-03-25T04:31:59;2.60;99.90
1992;DHT22;997;48.448;8.924;2024-03-25T04:34:24;2.40;99.90
1992;DHT22;997;48.448;8.924;2024-03-25T04:36:50;2.20;99.90
1992;DHT22;997;48.448;8.924;2024-03-25T04:39:15;2.30;99.90
1992;DHT22;997;48.448;8.924;2024-03-25T04:41:41;2.40;99.90
1992;DHT22;997;48.448;8.924;2024-03-25T04:44:06;2.40;99.90
1992;DHT22;997;48.448;8.924;2024-03-25T04:46:32;2.30;99.90
1992;DHT22;997;48.448;8.924;2024-03-25T04:48:57;2.40;99.90
1992;DHT22;997;48.448;8.924;2024-03-25T04:51:23;2.40;99.90
1992;DHT22;997;48.448;8.924;2024-03-25T04:53:49;2.60;99.90
1992;DHT22;997;48.448;8.924;2024-03-25T04:56:14;2.70;99.90
1992;DHT22;997;48.448;8.924;2024-03-25T04:58:40;2.70;99.90
1992;DHT22;997;48.448;8.924;2024-03-25T05:01:06;2.80;99.90
1992;DHT22;997;48.448;8.924;2024-03-25T05:03:31;2.80;99.90
1992;DHT22;997;48.448;8.924;2024-03-25T05:05:57;2.80;99.90
1992;DHT22;997;48.448;8.924;2024-03-25T05:08:23;2.90;99.90
1992;DHT22;997;48.448;8.924;2024-03-25T05:10:49;2.90;99.90
1992;DHT22;997;48.448;8.924;2024-03-25T05:13:14;2.80;99.90
1992;DHT22;997;48.448;8.924;2024-03-25T05:15:40;2.70;99.90
1992;DHT22;997;48.448;8.924;2024-03-25T05:18:06;2.70;99.90
1992;DHT22;997;48.448;8.924;2024-03-25T05:20:32;2.80;99.90
1992;DHT22;997;48.448;8.924;2024-03-25T05:22:58;2.90;99.90
1992;DHT22;997;48.448;8.924;2024-03-25T05:25:23;2.90;99.90
1992;DHT22;997;48.448;8.924;2024-03-25T05:27:54;2.90;99.90
1992;DHT22;997;48.448;8.924;2024-03-25T05:30:19;3.00;99.90
1992;DHT22;997;48.448;8.924;2024-03-25T05:32:45;3.00;99.90
1992;DHT22;997;48.448;8.924;2024-03-25T05:35:10;3.00;99.90
1992;DHT22;997;48.448;8.924;2024-03-25T05:37:36;3.20;99.90
1992;DHT22;997;48.448;8.924;2024-03-25T05:40:02;3.20;99.90
1992;DHT22;997;48.448;8.924;2024-03-25T05:42:28;3.30;99.90
1992;DHT22;997;48.448;8.924;2024-03-25T05:44:54;3.40;99.90
1992;DHT22;997;48.448;8.924;2024-03-25T05:47:19;3.50;99.90
1992;DHT22;997;48.448;8.924;2024-03-25T05:49:46;3.40;99.90
1992;DHT22;997;48.448;8.924;2024-03-25T05:52:12;3.50;99.90
1992;DHT22;997;48.448;8.924;2024-03-25T05:54:37;3.50;99.90
1992;DHT22;997;48.448;8.924;2024-03-25T05:57:03;3.40;99.90
1992;DHT22;997;48.448;8.924;2024-03-25T05:59:29;3.50;99.90
1992;DHT22;997;48.448;8.924;2024-03-25T06:01:54;3.40;99.90
1992;DHT22;997;48.448;8.924;2024-03-25T06:04:20;3.50;99.90
1992;DHT22;997;48.448;8.924;2024-03-25T06:06:45;3.60;99.90
1992;DHT22;997;48.448;8.924;2024-03-25T06:09:11;3.70;99.90
1992;DHT22;997;48.448;8.924;2024-03-25T06:11:37;3.80;99.90
1992;DHT22;997;48.448;8.924;2024-03-25T06:14:02;3.80;99.90
1992;DHT22;997;48.448;8.924;2024-03-25T06:16:28;4.00;99.90
1992;DHT22;997;48.448;8.924;2024-03-25T06:18:53;4.10;99.90
1992;DHT22;997;48.448;8.924;2024-03-25T06:21:19;4.30;99.90
1992;DHT22;997;48.448;8.924;2024-03-25T06:23:44;4.40;99.90
1992;DHT22;997;48.448;8.924;2024-03-25T06:26:10;4.30;99.90
1992;DHT22;997;48.448;8.924;2024-03-25T06:28:35;4.20;99.90
1992;DHT22;997;48.448;8.924;2024-03-25T06:31:01;4.10;99.90
1992;DHT22;997;48.448;8.924;2024-03-25T06:33:45;4.30;99.90
1992;DHT22;997;48.448;8.924;2024-03-25T06:36:29;4.40;99.90
1992;DHT22;997;48.448;8.924;2024-03-25T06:38:55;4.50;99.90
1992;DHT22;997;48.448;8.924;2024-03-25T06:41:20;4.60;99.90
1992;DHT22;997;48.448;8.924;2024-03-25T06:43:46;4.70;99.90
1992;DHT22;997;48.448;8.924;2024-03-25T06:46:11;4.70;99.90
1992;DHT22;997;48.448;8.924;2024-03-25T06:48:37;4.70;99.90
1992;DHT22;997;48.448;8.924;2024-03-25T06:51:03;4.80;99.90
1992;DHT22;997;48.448;8.924;2024-03-25T06:53:29;4.90;99.90
1992;DHT22;997;48.448;8.924;2024-03-25T06:55:55;5.00;99.90
1992;DHT22;997;48.448;8.924;2024-03-25T06:58:22;5.10;99.90
1992;DHT22;997;48.448;8.924;2024-03-25T07:00:48;5.20;99.90
1992;DHT22;997;48.448;8.924;2024-03-25T07:03:18;5.10;99.90
1992;DHT22;997;48.448;8.924;2024-03-25T07:05:47;5.00;99.90
1992;DHT22;997;48.448;8.924;2024-03-25T07:08:14;5.10;99.90
1992;DHT22;997;48.448;8.924;2024-03-25T07:10:43;5.10;99.90
1992;DHT22;997;48.448;8.924;2024-03-25T07:13:09;5.20;99.90
1992;DHT22;997;48.448;8.924;2024-03-25T07:15:35;5.30;99.90
1992;DHT22;997;48.448;8.924;2024-03-25T07:18:00;5.40;99.90
1992;DHT22;997;48.448;8.924;2024-03-25T07:20:26;5.40;99.90
1992;DHT22;997;48.448;8.924;2024-03-25T07:22:52;5.50;99.90
1992;DHT22;997;48.448;8.924;2024-03-25T07:25:21;5.60;99.90
1992;DHT22;997;48.448;8.924;2024-03-25T07:27:46;5.70;99.90
1992;DHT22;997;48.448;8.924;2024-03-25T07:30:12;5.50;99.90
1992;DHT22;997;48.448;8.924;2024-03-25T07:32:37;5.60;99.90
1992;DHT22;997;48.448;8.924;2024-03-25T07:35:04;5.70;99.90
1992;DHT22;997;48.448;8.924;2024-03-25T07:37:30;5.70;99.90
1992;DHT22;997;48.448;8.924;2024-03-25T07:39:56;5.70;99.90
1992;DHT22;997;48.448;8.924;2024-03-25T07:42:21;5.70;99.90
1992;DHT22;997;48.448;8.924;2024-03-25T07:44:47;5.70;99.90
1992;DHT22;997;48.448;8.924;2024-03-25T07:47:12;5.60;99.90
1992;DHT22;997;48.448;8.924;2024-03-25T07:49:38;5.50;99.90
1992;DHT22;997;48.448;8.924;2024-03-25T07:52:05;5.60;99.90
1992;DHT22;997;48.448;8.924;2024-03-25T07:54:31;5.70;99.90
1992;DHT22;997;48.448;8.924;2024-03-25T07:56:56;5.80;99.90
1992;DHT22;997;48.448;8.924;2024-03-25T07:59:22;5.90;99.90
1992;DHT22;997;48.448;8.924;2024-03-25T08:01:47;6.10;99.90
1992;DHT22;997;48.448;8.924;2024-03-25T08:04:13;6.10;99.90
1992;DHT22;997;48.448;8.924;2024-03-25T08:06:38;6.20;99.90
1992;DHT22;997;48.448;8.924;2024-03-25T08:09:04;6.30;99.90
1992;DHT22;997;48.448;8.924;2024-03-25T08:11:32;6.50;99.90
1992;DHT22;997;48.448;8.924;2024-03-25T08:13:58;6.60;99.90
1992;DHT22;997;48.448;8.924;2024-03-25T08:16:24;6.60;99.90
1992;DHT22;997;48.448;8.924;2024-03-25T08:18:50;6.60;99.90
1992;DHT22;997;48.448;8.924;2024-03-25T08:21:16;6.70;99.90
1992;DHT22;997;48.448;8.924;2024-03-25T08:23:44;6.80;99.90
1992;DHT22;997;48.448;8.924;2024-03-25T08:26:10;6.80;99.90
1992;DHT22;997;48.448;8.924;2024-03-25T08:28:36;6.90;99.90
1992;DHT22;997;48.448;8.924;2024-03-25T08:31:03;6.90;99.90
1992;DHT22;997;48.448;8.924;2024-03-25T08:33:29;6.90;99.90
1992;DHT22;997;48.448;8.924;2024-03-25T08:35:54;7.00;99.90
1992;DHT22;997;48.448;8.924;2024-03-25T08:38:20;7.20;99.90
1992;DHT22;997;48.448;8.924;2024-03-25T08:40:46;7.20;99.90
1992;DHT22;997;48.448;8.924;2024-03-25T08:43:11;7.40;99.90
1992;DHT22;997;48.448;8.924;2024-03-25T08:45:37;7.50;99.90
1992;DHT22;997;48.448;8.924;2024-03-25T08:48:02;7.60;99.90
1992;DHT22;997;48.448;8.924;2024-03-25T08:50:28;7.80;99.90
1992;DHT22;997;48.448;8.924;2024-03-25T08:52:53;8.00;99.90
1992;DHT22;997;48.448;8.924;2024-03-25T08:55:19;8.20;99.90
1992;DHT22;997;48.448;8.924;2024-03-25T08:57:45;8.20;99.90
1992;DHT22;997;48.448;8.924;2024-03-25T09:00:11;8.20;99.90
1992;DHT22;997;48.448;8.924;2024-03-25T09:02:37;8.30;99.90
1992;DHT22;997;48.448;8.924;2024-03-25T09:05:03;8.40;99.90
1992;DHT22;997;48.448;8.924;2024-03-25T09:07:31;8.40;99.90
1992;DHT22;997;48.448;8.924;2024-03-25T09:09:57;8.50;99.90
1992;DHT22;997;48.448;8.924;2024-03-25T09:12:41;8.60;99.90
1992;DHT22;997;48.448;8.924;2024-03-25T09:15:07;8.80;99.90
1992;DHT22;997;48.448;8.924;2024-03-25T09:17:32;8.80;99.90
1992;DHT22;997;48.448;8.924;2024-03-25T09:19:58;8.80;99.90
1992;DHT22;997;48.448;8.924;2024-03-25T09:22:23;8.90;99.90
1992;DHT22;997;48.448;8.924;2024-03-25T09:24:49;9.00;99.90
1992;DHT22;997;48.448;8.924;2024-03-25T09:27:15;9.10;99.90
1992;DHT22;997;48.448;8.924;2024-03-25T09:29:41;9.30;99.90
1992;DHT22;997;48.448;8.924;2024-03-25T09:32:07;9.40;99.90
1992;DHT22;997;48.448;8.924;2024-03-25T09:34:33;9.50;99.90
1992;DHT22;997;48.448;8.924;2024-03-25T09:36:58;9.50;99.90
1992;DHT22;997;48.448;8.924;2024-03-25T09:39:24;9.50;99.90
1992;DHT22;997;48.448;8.924;2024-03-25T09:41:51;9.70;99.90
1992;DHT22;997;48.448;8.924;2024-03-25T09:44:24;9.70;99.90
1992;DHT22;997;48.448;8.924;2024-03-25T09:46:50;9.70;99.90
1992;DHT22;997;48.448;8.924;2024-03-25T09:49:19;9.60;99.90
1992;DHT22;997;48.448;8.924;2024-03-25T09:51:45;9.60;99.90
1992;DHT22;997;48.448;8.924;2024-03-25T09:54:11;9.60;99.90
1992;DHT22;997;48.448;8.924;2024-03-25T09:56:38;9.70;99.90
1992;DHT22;997;48.448;8.924;2024-03-25T09:59:04;9.90;99.90
1992;DHT22;997;48.448;8.924;2024-03-25T10:01:32;9.90;99.90
1992;DHT22;997;48.448;8.924;2024-03-25T10:03:57;10.00;99.90
1992;DHT22;997;48.448;8.924;2024-03-25T10:06:23;10.30;99.90
1992;DHT22;997;48.448;8.924;2024-03-25T10:08:53;10.50;99.90
1992;DHT22;997;48.448;8.924;2024-03-25T10:11:19;10.70;99.90
1992;DHT22;997;48.448;8.924;2024-03-25T10:13:45;10.60;99.90
1992;DHT22;997;48.448;8.924;2024-03-25T10:16:10;10.50;99.90
1992;DHT22;997;48.448;8.924;2024-03-25T10:18:36;10.50;99.90
1992;DHT22;997;48.448;8.924;2024-03-25T10:21:03;10.00;99.90
1992;DHT22;997;48.448;8.924;2024-03-25T10:23:29;10.00;99.90
1992;DHT22;997;48.448;8.924;2024-03-25T10:25:56;10.20;99.90
1992;DHT22;997;48.448;8.924;2024-03-25T10:28:21;10.40;99.90
1992;DHT22;997;48.448;8.924;2024-03-25T10:30:47;10.50;99.90
1992;DHT22;997;48.448;8.924;2024-03-25T10:33:13;10.50;99.90
1992;DHT22;997;48.448;8.924;2024-03-25T10:35:39;10.60;99.90
1992;DHT22;997;48.448;8.924;2024-03-25T10:38:07;10.60;99.90
1992;DHT22;997;48.448;8.924;2024-03-25T10:40:39;10.60;99.90
1992;DHT22;997;48.448;8.924;2024-03-25T10:43:07;10.20;99.90
1992;DHT22;997;48.448;8.924;2024-03-25T10:45:35;10.10;99.90
1992;DHT22;997;48.448;8.924;2024-03-25T10:48:07;10.20;99.90
1992;DHT22;997;48.448;8.924;2024-03-25T10:50:36;10.20;99.90
1992;DHT22;997;48.448;8.924;2024-03-25T10:53:04;10.30;99.90
1992;DHT22;997;48.448;8.924;2024-03-25T10:55:31;10.50;99.90
1992;DHT22;997;48.448;8.924;2024-03-25T10:57:59;10.60;99.90
1992;DHT22;997;48.448;8.924;2024-03-25T11:00:25;10.70;99.90
1992;DHT22;997;48.448;8.924;2024-03-25T11:02:51;10.80;99.90
1992;DHT22;997;48.448;8.924;2024-03-25T11:05:17;10.90;99.90
1992;DHT22;997;48.448;8.924;2024-03-25T11:07:43;11.00;99.90
1992;DHT22;997;48.448;8.924;2024-03-25T11:10:09;11.10;99.90
1992;DHT22;997;48.448;8.924;2024-03-25T11:12:36;11.20;99.90
1992;DHT22;997;48.448;8.924;2024-03-25T11:15:05;11.20;99.90
1992;DHT22;997;48.448;8.924;2024-03-25T11:17:31;11.30;99.90
1992;DHT22;997;48.448;8.924;2024-03-25T11:20:14;11.20;99.90
1992;DHT22;997;48.448;8.924;2024-03-25T11:25:14;11.10;99.90
1992;DHT22;997;48.448;8.924;2024-03-25T11:27:42;10.90;99.90
1992;DHT22;997;48.448;8.924;2024-03-25T11:30:10;10.80;99.90
1992;DHT22;997;48.448;8.924;2024-03-25T11:32:44;10.90;99.90
1992;DHT22;997;48.448;8.924;2024-03-25T11:35:10;11.00;99.90
1992;DHT22;997;48.448;8.924;2024-03-25T11:37:43;10.90;99.90
1992;DHT22;997;48.448;8.924;2024-03-25T11:40:09;11.00;99.90
1992;DHT22;997;48.448;8.924;2024-03-25T11:42:38;11.10;99.90
1992;DHT22;997;48.448;8.924;2024-03-25T11:45:05;11.20;99.90
1992;DHT22;997;48.448;8.924;2024-03-25T11:47:31;11.20;99.90
1992;DHT22;997;48.448;8.924;2024-03-25T11:49:56;11.40;99.90
1992;DHT22;997;48.448;8.924;2024-03-25T11:52:22;11.50;99.90
1992;DHT22;997;48.448;8.924;2024-03-25T11:54:54;11.70;99.90
1992;DHT22;997;48.448;8.924;2024-03-25T11:57:21;11.90;99.90
1992;DHT22;997;48.448;8.924;2024-03-25T11:59:50;12.00;99.90
1992;DHT22;997;48.448;8.924;2024-03-25T12:02:16;12.10;98.20
1992;DHT22;997;48.448;8.924;2024-03-25T12:04:43;12.10;97.30
1992;DHT22;997;48.448;8.924;2024-03-25T12:07:14;12.20;94.50
1992;DHT22;997;48.448;8.924;2024-03-25T12:09:40;12.00;94.70
1992;DHT22;997;48.448;8.924;2024-03-25T12:12:26;11.90;95.90
1992;DHT22;997;48.448;8.924;2024-03-25T12:14:53;11.90;95.10
1992;DHT22;997;48.448;8.924;2024-03-25T12:17:19;12.00;95.70
1992;DHT22;997;48.448;8.924;2024-03-25T12:20:06;12.00;97.60
1992;DHT22;997;48.448;8.924;2024-03-25T12:22:35;12.00;97.70
1992;DHT22;997;48.448;8.924;2024-03-25T12:25:05;12.20;98.10
1992;DHT22;997;48.448;8.924;2024-03-25T12:27:32;12.40;97.60
1992;DHT22;997;48.448;8.924;2024-03-25T12:30:06;12.50;94.90
1992;DHT22;997;48.448;8.924;2024-03-25T12:32:42;12.50;96.10
1992;DHT22;997;48.448;8.924;2024-03-25T12:35:15;12.40;93.10
1992;DHT22;997;48.448;8.924;2024-03-25T12:37:45;12.30;93.60
1992;DHT22;997;48.448;8.924;2024-03-25T12:40:13;12.40;94.10
1992;DHT22;997;48.448;8.924;2024-03-25T12:42:40;12.40;94.70
1992;DHT22;997;48.448;8.924;2024-03-25T12:45:06;12.50;94.00
1992;DHT22;997;48.448;8.924;2024-03-25T12:47:33;12.60;95.30
1992;DHT22;997;48.448;8.924;2024-03-25T12:49:59;12.80;94.80
1992;DHT22;997;48.448;8.924;2024-03-25T12:52:25;13.00;94.60
1992;DHT22;997;48.448;8.924;2024-03-25T12:54:52;13.30;93.90
1992;DHT22;997;48.448;8.924;2024-03-25T12:57:18;13.40;93.50
1992;DHT22;997;48.448;8.924;2024-03-25T12:59:47;13.40;91.70
1992;DHT22;997;48.448;8.924;2024-03-25T13:02:13;13.30;93.30
1992;DHT22;997;48.448;8.924;2024-03-25T13:04:40;13.40;94.20
1992;DHT22;997;48.448;8.924;2024-03-25T13:07:08;13.40;89.80
1992;DHT22;997;48.448;8.924;2024-03-25T13:09:33;13.50;88.70
1992;DHT22;997;48.448;8.924;2024-03-25T13:11:59;13.60;89.80
1992;DHT22;997;48.448;8.924;2024-03-25T13:14:25;13.90;93.20
1992;DHT22;997;48.448;8.924;2024-03-25T13:16:51;14.00;89.30
1992;DHT22;997;48.448;8.924;2024-03-25T13:19:17;14.00;91.50
1992;DHT22;997;48.448;8.924;2024-03-25T13:21:43;13.90;83.10
1992;DHT22;997;48.448;8.924;2024-03-25T13:24:09;14.00;91.00
1992;DHT22;997;48.448;8.924;2024-03-25T13:26:34;14.10;89.20
1992;DHT22;997;48.448;8.924;2024-03-25T13:29:00;14.20;85.30
1992;DHT22;997;48.448;8.924;2024-03-25T13:31:26;14.40;80.60
1992;DHT22;997;48.448;8.924;2024-03-25T13:33:52;14.40;81.00
1992;DHT22;997;48.448;8.924;2024-03-25T13:36:18;14.40;85.00
1992;DHT22;997;48.448;8.924;2024-03-25T13:38:44;14.40;81.10
1992;DHT22;997;48.448;8.924;2024-03-25T13:41:11;14.50;84.80
1992;DHT22;997;48.448;8.924;2024-03-25T13:43:42;14.70;87.40
1992;DHT22;997;48.448;8.924;2024-03-25T13:46:08;14.90;80.90
1992;DHT22;997;48.448;8.924;2024-03-25T13:48:34;15.00;78.70
1992;DHT22;997;48.448;8.924;2024-03-25T13:50:59;15.20;79.40
1992;DHT22;997;48.448;8.924;2024-03-25T13:53:25;15.30;74.80
1992;DHT22;997;48.448;8.924;2024-03-25T13:55:52;15.40;73.90
1992;DHT22;997;48.448;8.924;2024-03-25T13:58:19;15.40;73.90
1992;DHT22;997;48.448;8.924;2024-03-25T14:00:45;15.50;72.80
1992;DHT22;997;48.448;8.924;2024-03-25T14:03:10;15.40;71.40
1992;DHT22;997;48.448;8.924;2024-03-25T14:05:36;15.30;69.30
1992;DHT22;997;48.448;8.924;2024-03-25T14:08:01;15.40;71.00
1992;DHT22;997;48.448;8.924;2024-03-25T14:10:27;15.50;66.20
1992;DHT22;997;48.448;8.924;2024-03-25T14:12:53;15.60;69.00
1992;DHT22;997;48.448;8.924;2024-03-25T14:15:18;15.90;70.50
1992;DHT22;997;48.448;8.924;2024-03-25T14:17:44;16.10;72.10
1992;DHT22;997;48.448;8.924;2024-03-25T14:20:10;16.20;69.10
1992;DHT22;997;48.448;8.924;2024-03-25T14:22:36;16.30;68.40
1992;DHT22;997;48.448;8.924;2024-03-25T14:25:01;16.30;68.20
1992;DHT22;997;48.448;8.924;2024-03-25T14:27:27;16.40;67.70
1992;DHT22;997;48.448;8.924;2024-03-25T14:29:52;16.30;68.60
1992;DHT22;997;48.448;8.924;2024-03-25T14:32:22;16.40;66.40
1992;DHT22;997;48.448;8.924;2024-03-25T14:34:48;16.40;65.70
1992;DHT22;997;48.448;8.924;2024-03-25T14:37:14;16.60;63.50
1992;DHT22;997;48.448;8.924;2024-03-25T14:39:40;16.60;65.40
1992;DHT22;997;48.448;8.924;2024-03-25T14:42:08;16.70;67.60
1992;DHT22;997;48.448;8.924;2024-03-25T14:44:34;16.80;64.60
1992;DHT22;997;48.448;8.924;2024-03-25T14:47:00;16.80;63.10
1992;DHT22;997;48.448;8.924;2024-03-25T14:49:25;16.90;61.60
1992;DHT22;997;48.448;8.924;2024-03-25T14:51:52;17.40;65.30
1992;DHT22;997;48.448;8.924;2024-03-25T14:54:18;17.80;60.00
1992;DHT22;997;48.448;8.924;2024-03-25T14:56:47;17.90;60.00
1992;DHT22;997;48.448;8.924;2024-03-25T14:59:13;18.30;60.10
1992;DHT22;997;48.448;8.924;2024-03-25T15:01:39;18.50;58.00
1992;DHT22;997;48.448;8.924;2024-03-25T15:04:05;18.60;58.30
1992;DHT22;997;48.448;8.924;2024-03-25T15:06:31;18.60;58.80
1992;DHT22;997;48.448;8.924;2024-03-25T15:08:58;18.70;57.90
1992;DHT22;997;48.448;8.924;2024-03-25T15:11:23;18.80;59.70
1992;DHT22;997;48.448;8.924;2024-03-25T15:13:51;18.50;56.40
1992;DHT22;997;48.448;8.924;2024-03-25T15:16:17;18.20;56.90
1992;DHT22;997;48.448;8.924;2024-03-25T15:18:43;17.80;57.20
1992;DHT22;997;48.448;8.924;2024-03-25T15:21:09;17.70;57.50
1992;DHT22;997;48.448;8.924;2024-03-25T15:23:35;17.90;56.90
1992;DHT22;997;48.448;8.924;2024-03-25T15:26:00;18.00;55.90
1992;DHT22;997;48.448;8.924;2024-03-25T15:28:27;18.30;56.20
1992;DHT22;997;48.448;8.924;2024-03-25T15:30:55;18.50;54.20
1992;DHT22;997;48.448;8.924;2024-03-25T15:33:21;19.00;55.50
1992;DHT22;997;48.448;8.924;2024-03-25T15:35:48;19.50;55.00
1992;DHT22;997;48.448;8.924;2024-03-25T15:38:14;19.40;52.40
1992;DHT22;997;48.448;8.924;2024-03-25T15:40:39;20.00;53.80
1992;DHT22;997;48.448;8.924;2024-03-25T15:43:06;20.00;52.80
1992;DHT22;997;48.448;8.924;2024-03-25T15:45:32;20.20;50.40
1992;DHT22;997;48.448;8.924;2024-03-25T15:47:57;20.20;51.00
1992;DHT22;997;48.448;8.924;2024-03-25T15:50:23;20.10;50.50
1992;DHT22;997;48.448;8.924;2024-03-25T15:52:49;20.60;51.10
1992;DHT22;997;48.448;8.924;2024-03-25T15:55:15;21.30;52.60
1992;DHT22;997;48.448;8.924;2024-03-25T15:57:41;21.50;50.00
1992;DHT22;997;48.448;8.924;2024-03-25T16:00:07;21.70;49.70
1992;DHT22;997;48.448;8.924;2024-03-25T16:02:37;21.50;50.20
1992;DHT22;997;48.448;8.924;2024-03-25T16:05:03;21.00;48.70
1992;DHT22;997;48.448;8.924;2024-03-25T16:07:32;20.90;49.70
1992;DHT22;997;48.448;8.924;2024-03-25T16:09:57;21.20;49.00
1992;DHT22;997;48.448;8.924;2024-03-25T16:12:23;21.00;49.60
1992;DHT22;997;48.448;8.924;2024-03-25T16:14:49;21.30;49.70
1992;DHT22;997;48.448;8.924;2024-03-25T16:17:14;21.50;48.70
1992;DHT22;997;48.448;8.924;2024-03-25T16:19:40;21.60;47.60
1992;DHT22;997;48.448;8.924;2024-03-25T16:22:05;21.40;48.70
1992;DHT22;997;48.448;8.924;2024-03-25T16:24:32;21.60;48.00